Claire A — TCRP2 — position and weather

sailwx.info

Track history (hours):
 
Tides and Currents Weather Stations Pressure Air Temp Water Temp Dewpoint Dewpoint Depression Visibility Wind Speed Wind Dir Waves Ship Positions

Claire A

Last reported at 2018-Apr-16 15:08 UTC. Time now 2018-Apr-19 23:17 UTC.
Position N 37°37' E 024°10'.

Length 184 m; draft 8.8 m.

Type: Ship (hazmat cat B). MMSI: 271001092.

Date/timePositionNaut miles runAvg speedWind from/ knotsBaromVisibWave heightAir tempDewpointWater temp
2018-Apr-16 15:08N 37°37' E 024°10'214.8
2018-Apr-16 15:00N 37°36' E 024°07'814.6
2018-Apr-16 14:27N 37°35' E 023°58'614.4
2018-Apr-16 14:00N 37°37' E 023°50'714.7
2018-Apr-16 13:30N 37°41' E 023°42'714.7
2018-Apr-16 13:00N 37°47' E 023°38'714.4
2018-Apr-16 12:31N 37°55' E 023°37'3 5.9
2018-Apr-16 12:00N 37°57' E 023°35'0 0.5
2018-Apr-16 11:30N 37°57' E 023°35'0 0.0
2018-Apr-16 11:00N 37°57' E 023°35'0 0.0
2018-Apr-16 10:30N 37°57' E 023°35'0 0.0
2018-Apr-16 10:00N 37°57' E 023°35'0 0.0
2018-Apr-16 09:30N 37°57' E 023°35'0 0.0
2018-Apr-16 08:59N 37°57' E 023°35'0 0.0
2018-Apr-16 08:26N 37°57' E 023°35'0 0.0
2018-Apr-16 07:59N 37°57' E 023°35'0 0.0
2018-Apr-16 07:29N 37°57' E 023°35'0 0.0
2018-Apr-16 06:58N 37°57' E 023°35'0 0.0
2018-Apr-16 06:28N 37°57' E 023°35'0 0.0
2018-Apr-16 05:58N 37°57' E 023°35'0 0.0
2018-Apr-16 05:28N 37°57' E 023°35'0 0.0
2018-Apr-16 04:58N 37°57' E 023°35'0 0.0
2018-Apr-16 04:30N 37°57' E 023°35'0 0.0
2018-Apr-16 04:00N 37°57' E 023°35'0 0.0
2018-Apr-16 03:24N 37°57' E 023°35'0 0.0
2018-Apr-16 03:00N 37°57' E 023°35'0 0.0
2018-Apr-16 02:30N 37°57' E 023°35'0 0.0
2018-Apr-16 01:59N 37°57' E 023°35'0 0.0
2018-Apr-16 01:29N 37°57' E 023°35'0 0.0
2018-Apr-16 00:59N 37°57' E 023°35'0 0.0
2018-Apr-16 00:29N 37°57' E 023°35'0 0.0
2018-Apr-15 23:59N 37°57' E 023°35'0 0.0
2018-Apr-15 23:28N 37°57' E 023°35'0 0.0
2018-Apr-15 22:55N 37°57' E 023°35'0 0.0
2018-Apr-15 22:25N 37°57' E 023°35'0 0.0
2018-Apr-15 21:58N 37°57' E 023°35'0 0.0
2018-Apr-15 21:30N 37°57' E 023°35'0 0.0
2018-Apr-15 20:45N 37°57' E 023°35'0 0.0
2018-Apr-15 20:31N 37°57' E 023°35'2 4.1
2018-Apr-15 20:00N 37°55' E 023°35'2 3.2
2018-Apr-15 19:30N 37°54' E 023°35'3 5.6
2018-Apr-15 19:00N 37°52' E 023°33'1 2.8
2018-Apr-15 18:30N 37°52' E 023°31'0 0.1
2018-Apr-15 18:00N 37°52' E 023°31'0 0.0
2018-Apr-15 17:30N 37°52' E 023°31'0 0.0
2018-Apr-15 17:00N 37°52' E 023°31'0 0.0
2018-Apr-15 16:29N 37°52' E 023°31'0 0.0
2018-Apr-15 15:59N 37°52' E 023°31'0 0.0
2018-Apr-15 15:29N 37°52' E 023°31'0 0.0
2018-Apr-15 14:59N 37°52' E 023°31'0 0.0
2018-Apr-15 14:28N 37°52' E 023°31'0 0.0
2018-Apr-15 13:58N 37°52' E 023°31'0 0.0
2018-Apr-15 13:28N 37°52' E 023°31'0 0.0
2018-Apr-15 12:55N 37°52' E 023°31'0 0.0
2018-Apr-15 12:28N 37°52' E 023°31'0 0.0
2018-Apr-15 12:00N 37°52' E 023°31'0 0.0
2018-Apr-15 11:30N 37°52' E 023°31'0 0.0
2018-Apr-15 11:00N 37°52' E 023°31'0 0.0
2018-Apr-15 10:30N 37°52' E 023°31'0 0.1
2018-Apr-15 10:00N 37°52' E 023°31'0 0.0
2018-Apr-15 09:29N 37°52' E 023°31'0 0.2
2018-Apr-15 09:00N 37°52' E 023°31'2 3.1
2018-Apr-15 08:30N 37°51' E 023°33'2 4.5
2018-Apr-15 08:00N 37°51' E 023°36'3 5.8
2018-Apr-15 07:30N 37°50' E 023°39'713.7
2018-Apr-15 07:00N 37°44' E 023°43'713.6
2018-Apr-15 06:30N 37°37' E 023°44'814.0
2018-Apr-15 05:58N 37°30' E 023°45'1314.5
2018-Apr-15 05:04N 37°17' E 023°43'114.6
2018-Apr-15 05:00N 37°16' E 023°42'36912.9
2018-Apr-14 00:22N 36°25' E 016°06'918.5
2018-Apr-13 23:54N 36°25' E 015°55'816.1
2018-Apr-13 23:24N 36°24' E 015°45'3 7.1
2018-Apr-13 23:00N 36°25' E 015°41'815.1
2018-Apr-13 22:29N 36°25' E 015°31'813.8
2018-Apr-13 21:56N 36°25' E 015°22'817.0
2018-Apr-13 21:28N 36°24' E 015°12'612.7
2018-Apr-13 21:00N 36°24' E 015°05'713.8
2018-Apr-13 20:30N 36°25' E 014°56'816.5
2018-Apr-13 19:59N 36°25' E 014°46'813.2
2018-Apr-13 19:23N 36°25' E 014°36'1614.7
2018-Apr-13 18:20N 36°29' E 014°17'411.5
2018-Apr-13 18:00N 36°31' E 014°13'714.6
2018-Apr-13 17:30N 36°33' E 014°04'815.0
2018-Apr-13 16:59N 36°35' E 013°55'713.4
2018-Apr-13 16:30N 36°36' E 013°47'916.1
2018-Apr-13 15:57N 36°38' E 013°36'613.2
2018-Apr-13 15:30N 36°40' E 013°29'712.9
2018-Apr-13 15:00N 36°41' E 013°21'714.0
2018-Apr-13 14:30N 36°43' E 013°13'714.6
2018-Apr-13 14:00N 36°44' E 013°04'  
2018-Apr-11 04:02N 36°01' W 005°10'120.5
2018-Apr-11 04:00N 36°01' W 005°11'1020.5
2018-Apr-11 03:30N 35°59' W 005°23'  
2018-Apr-07 05:14N 35°57' W 005°33'4 9.7
2018-Apr-07 04:48N 35°54' W 005°30'0 0.7
2018-Apr-07 04:24N 35°54' W 005°29'0 0.0
2018-Apr-07 04:00N 35°54' W 005°29'0 0.0
2018-Apr-07 00:47N 35°54' W 005°29'0 0.0
2018-Apr-06 22:22N 35°54' W 005°29'0 0.0
2018-Apr-06 21:58N 35°54' W 005°29'0 0.0
2018-Apr-06 21:21N 35°54' W 005°29'0 0.0
2018-Apr-06 20:57N 35°54' W 005°29'0 0.0
2018-Apr-06 18:20N 35°54' W 005°29'  
Track history (hours):
 
Tides and Currents Weather Stations Pressure Air Temp Water Temp Dewpoint Dewpoint Depression Visibility Wind Speed Wind Dir Waves Ship Positions

Claire A

Last reported at 2018-Apr-16 15:08 UTC. Time now 2018-Apr-19 23:17 UTC.
Position N 37°37' E 024°10'.

Length 184 m; draft 8.8 m.

Type: Ship (hazmat cat B). MMSI: 271001092.

Date/timePositionNaut miles runAvg speedWind from/ knotsBaromVisibWave heightAir tempDewpointWater temp
2018-Apr-16 15:08N 37°37' E 024°10'214.8
2018-Apr-16 15:00N 37°36' E 024°07'814.6
2018-Apr-16 14:27N 37°35' E 023°58'614.4
2018-Apr-16 14:00N 37°37' E 023°50'714.7
2018-Apr-16 13:30N 37°41' E 023°42'714.7
2018-Apr-16 13:00N 37°47' E 023°38'714.4
2018-Apr-16 12:31N 37°55' E 023°37'3 5.9
2018-Apr-16 12:00N 37°57' E 023°35'0 0.5
2018-Apr-16 11:30N 37°57' E 023°35'0 0.0
2018-Apr-16 11:00N 37°57' E 023°35'0 0.0
2018-Apr-16 10:30N 37°57' E 023°35'0 0.0
2018-Apr-16 10:00N 37°57' E 023°35'0 0.0
2018-Apr-16 09:30N 37°57' E 023°35'0 0.0
2018-Apr-16 08:59N 37°57' E 023°35'0 0.0
2018-Apr-16 08:26N 37°57' E 023°35'0 0.0
2018-Apr-16 07:59N 37°57' E 023°35'0 0.0
2018-Apr-16 07:29N 37°57' E 023°35'0 0.0
2018-Apr-16 06:58N 37°57' E 023°35'0 0.0
2018-Apr-16 06:28N 37°57' E 023°35'0 0.0
2018-Apr-16 05:58N 37°57' E 023°35'0 0.0
2018-Apr-16 05:28N 37°57' E 023°35'0 0.0
2018-Apr-16 04:58N 37°57' E 023°35'0 0.0
2018-Apr-16 04:30N 37°57' E 023°35'0 0.0
2018-Apr-16 04:00N 37°57' E 023°35'0 0.0
2018-Apr-16 03:24N 37°57' E 023°35'0 0.0
2018-Apr-16 03:00N 37°57' E 023°35'0 0.0
2018-Apr-16 02:30N 37°57' E 023°35'0 0.0
2018-Apr-16 01:59N 37°57' E 023°35'0 0.0
2018-Apr-16 01:29N 37°57' E 023°35'0 0.0
2018-Apr-16 00:59N 37°57' E 023°35'0 0.0
2018-Apr-16 00:29N 37°57' E 023°35'0 0.0
2018-Apr-15 23:59N 37°57' E 023°35'0 0.0
2018-Apr-15 23:28N 37°57' E 023°35'0 0.0
2018-Apr-15 22:55N 37°57' E 023°35'0 0.0
2018-Apr-15 22:25N 37°57' E 023°35'0 0.0
2018-Apr-15 21:58N 37°57' E 023°35'0 0.0
2018-Apr-15 21:30N 37°57' E 023°35'0 0.0
2018-Apr-15 20:45N 37°57' E 023°35'0 0.0
2018-Apr-15 20:31N 37°57' E 023°35'2 4.1
2018-Apr-15 20:00N 37°55' E 023°35'2 3.2
2018-Apr-15 19:30N 37°54' E 023°35'3 5.6
2018-Apr-15 19:00N 37°52' E 023°33'1 2.8
2018-Apr-15 18:30N 37°52' E 023°31'0 0.1
2018-Apr-15 18:00N 37°52' E 023°31'0 0.0
2018-Apr-15 17:30N 37°52' E 023°31'0 0.0
2018-Apr-15 17:00N 37°52' E 023°31'0 0.0
2018-Apr-15 16:29N 37°52' E 023°31'0 0.0
2018-Apr-15 15:59N 37°52' E 023°31'0 0.0
2018-Apr-15 15:29N 37°52' E 023°31'0 0.0
2018-Apr-15 14:59N 37°52' E 023°31'0 0.0
2018-Apr-15 14:28N 37°52' E 023°31'0 0.0
2018-Apr-15 13:58N 37°52' E 023°31'0 0.0
2018-Apr-15 13:28N 37°52' E 023°31'0 0.0
2018-Apr-15 12:55N 37°52' E 023°31'0 0.0
2018-Apr-15 12:28N 37°52' E 023°31'0 0.0
2018-Apr-15 12:00N 37°52' E 023°31'0 0.0
2018-Apr-15 11:30N 37°52' E 023°31'0 0.0
2018-Apr-15 11:00N 37°52' E 023°31'0 0.0
2018-Apr-15 10:30N 37°52' E 023°31'0 0.1
2018-Apr-15 10:00N 37°52' E 023°31'0 0.0
2018-Apr-15 09:29N 37°52' E 023°31'0 0.2
2018-Apr-15 09:00N 37°52' E 023°31'2 3.1
2018-Apr-15 08:30N 37°51' E 023°33'2 4.5
2018-Apr-15 08:00N 37°51' E 023°36'3 5.8
2018-Apr-15 07:30N 37°50' E 023°39'713.7
2018-Apr-15 07:00N 37°44' E 023°43'713.6
2018-Apr-15 06:30N 37°37' E 023°44'814.0
2018-Apr-15 05:58N 37°30' E 023°45'1314.5
2018-Apr-15 05:04N 37°17' E 023°43'114.6
2018-Apr-15 05:00N 37°16' E 023°42'36912.9
2018-Apr-14 00:22N 36°25' E 016°06'918.5
2018-Apr-13 23:54N 36°25' E 015°55'816.1
2018-Apr-13 23:24N 36°24' E 015°45'3 7.1
2018-Apr-13 23:00N 36°25' E 015°41'815.1
2018-Apr-13 22:29N 36°25' E 015°31'813.8
2018-Apr-13 21:56N 36°25' E 015°22'817.0
2018-Apr-13 21:28N 36°24' E 015°12'612.7
2018-Apr-13 21:00N 36°24' E 015°05'713.8
2018-Apr-13 20:30N 36°25' E 014°56'816.5
2018-Apr-13 19:59N 36°25' E 014°46'813.2
2018-Apr-13 19:23N 36°25' E 014°36'1614.7
2018-Apr-13 18:20N 36°29' E 014°17'411.5
2018-Apr-13 18:00N 36°31' E 014°13'714.6
2018-Apr-13 17:30N 36°33' E 014°04'815.0
2018-Apr-13 16:59N 36°35' E 013°55'713.4
2018-Apr-13 16:30N 36°36' E 013°47'916.1
2018-Apr-13 15:57N 36°38' E 013°36'613.2
2018-Apr-13 15:30N 36°40' E 013°29'712.9
2018-Apr-13 15:00N 36°41' E 013°21'714.0
2018-Apr-13 14:30N 36°43' E 013°13'714.6
2018-Apr-13 14:00N 36°44' E 013°04'  
2018-Apr-11 04:02N 36°01' W 005°10'120.5
2018-Apr-11 04:00N 36°01' W 005°11'1020.5
2018-Apr-11 03:30N 35°59' W 005°23'  
2018-Apr-07 05:14N 35°57' W 005°33'4 9.7
2018-Apr-07 04:48N 35°54' W 005°30'0 0.7
2018-Apr-07 04:24N 35°54' W 005°29'0 0.0
2018-Apr-07 04:00N 35°54' W 005°29'0 0.0
2018-Apr-07 00:47N 35°54' W 005°29'0 0.0
2018-Apr-06 22:22N 35°54' W 005°29'0 0.0
2018-Apr-06 21:58N 35°54' W 005°29'0 0.0
2018-Apr-06 21:21N 35°54' W 005°29'0 0.0
2018-Apr-06 20:57N 35°54' W 005°29'0 0.0
2018-Apr-06 18:20N 35°54' W 005°29'  

Dump ship's entire track history